Flight Track Log - Related Links

Times and Time Zones

All times are in EDT time to prevent confusion due to time zone crossing. See the ATN122 flight status page for this flight to view local times or setup timezone preferences in your user account.

Time Position Orientation Groundspeed Altitude Reporting Facility
EDT Latitude Longitude Course Direction KTS MPH feet Rate Location/Type
Thu 10:51:27 PM 43.0850 -77.7006 196° South 151 174 2,300  Level Cleveland Center
Thu 10:54:10 PM 42.9317 -77.8242 211° Southwest 268 308 9,500 2,206 Climbing Cleveland Center
Thu 10:55:10 PM 42.8794 -77.9056 229° Southwest 281 323 10,500 1,600 Climbing Cleveland Center
Thu 10:56:10 PM 42.8253 -77.9986 232° Southwest 314 361 12,700 2,450 Climbing Cleveland Center
Thu 10:57:10 PM 42.7653 -78.1114 234° Southwest 348 400 15,400 2,600 Climbing Cleveland Center
Thu 10:58:10 PM 42.7008 -78.2242 232° Southwest 376 433 17,900 2,450 Climbing Cleveland Center
Thu 10:59:10 PM 42.6344 -78.3422 233° Southwest 386 444 20,300 2,200 Climbing Cleveland Center
Thu 11:00:10 PM 42.5639 -78.4689 233° Southwest 403 464 22,300 1,950 Climbing Cleveland Center
Thu 11:01:10 PM 42.4911 -78.5925 231° Southwest 422 486 24,200 1,750 Climbing Cleveland Center
Thu 11:02:10 PM 42.4181 -78.7242 233° Southwest 434 499 25,800 1,600 Climbing Cleveland Center
Thu 11:03:10 PM 42.3431 -78.8556 232° Southwest 439 505 27,400 1,650 Climbing Cleveland Center
Thu 11:04:10 PM 42.2575 -79.0008 232° Southwest 450 518 29,100 1,750 Climbing Cleveland Center
Thu 11:05:10 PM 42.1803 -79.1372 233° Southwest 457 526 30,900 2,000 Climbing Cleveland Center
Thu 11:06:10 PM 42.1089 -79.2706 234° Southwest 457 526 33,100 2,050 Climbing Cleveland Center
Thu 11:07:10 PM 42.0372 -79.3978 233° Southwest 441 507 35,000 1,600 Climbing Cleveland Center
Thu 11:08:10 PM 41.9675 -79.5219 233° Southwest 427 491 36,300 1,250 Climbing Cleveland Center
Thu 11:09:10 PM 41.8958 -79.6458 232° Southwest 427 491 37,500 850 Climbing Cleveland Center
Thu 11:10:10 PM 41.8236 -79.7722 233° Southwest 427 491 38,000 250 Climbing Cleveland Center
Thu 11:11:10 PM 41.7517 -79.8983 233° Southwest 427 491 38,000  Level Cleveland Center
Thu 11:12:10 PM 41.6814 -80.0242 233° Southwest 427 491 38,000  Level Cleveland Center
Thu 11:13:10 PM 41.6089 -80.1500 232° Southwest 427 491 38,000  Level Cleveland Center
Thu 11:14:10 PM 41.5364 -80.2808 234° Southwest 432 497 38,000  Level Cleveland Center
Thu 11:15:10 PM 41.4658 -80.3975 231° Southwest 449 517 38,000  Level Cleveland Center
Thu 11:16:10 PM 41.3931 -80.5250 233° Southwest 449 517 38,000  Level Cleveland Center
Thu 11:17:10 PM 41.3178 -80.6550 232° Southwest 442 509 38,000  Level Cleveland Center
Thu 11:18:10 PM 41.2428 -80.7792 231° Southwest 442 509 38,000  Level Cleveland Center
Thu 11:19:10 PM 41.1758 -80.9086 236° Southwest 437 503 38,000  Level Cleveland Center
Thu 11:20:10 PM 41.1128 -81.0406 238° Southwest 431 496 38,000 -50 Level Cleveland Center
Thu 11:21:10 PM 41.0328 -81.1831 233° Southwest 436 502 37,900 -600 Descending Cleveland Center
Thu 11:22:10 PM 40.9653 -81.3172 236° Southwest 436 502 36,800 -1,033 Descending Cleveland Center
Thu 11:23:41 PM 40.8667 -81.5058 235° Southwest 425 489 35,300 -1,105 Descending Indianapolis Center
Thu 11:24:42 PM 40.7994 -81.6389 236° Southwest 428 493 34,000 -634 Descending Indianapolis Center
Thu 11:25:44 PM 40.7300 -81.7714 235° Southwest 433 498 34,000  Level Indianapolis Center
Thu 11:26:45 PM 40.6589 -81.9044 235° Southwest 438 504 34,000  Level Indianapolis Center
Thu 11:27:46 PM 40.5892 -82.0375 235° Southwest 438 504 34,000  Level Indianapolis Center
Thu 11:28:48 PM 40.5203 -82.1683 235° Southwest 433 498 34,000  Level Indianapolis Center
Thu 11:29:49 PM 40.4511 -82.2961 235° Southwest 429 494 34,000  Level Indianapolis Center
Thu 11:30:50 PM 40.3825 -82.4256 235° Southwest 427 491 34,000  Level Indianapolis Center
Thu 11:31:52 PM 40.3139 -82.5528 235° Southwest 424 488 34,000  Level Indianapolis Center
Thu 11:32:53 PM 40.2453 -82.6817 235° Southwest 426 490 34,000 -393 Level Indianapolis Center
Thu 11:33:54 PM 40.1764 -82.8092 235° Southwest 427 491 33,200 -984 Descending Indianapolis Center
Thu 11:34:55 PM 40.1069 -82.9378 235° Southwest 428 493 32,000 -1,073 Descending Indianapolis Center
Thu 11:35:57 PM 40.0367 -83.0661 234° Southwest 430 495 31,000 -1,073 Descending Indianapolis Center
Thu 11:36:58 PM 39.9553 -83.2158 235° Southwest 430 495 29,800 -1,967 Descending Indianapolis Center
Thu 11:37:59 PM 39.8856 -83.3422 234° Southwest 427 491 27,000 -2,683 Descending Indianapolis Center
Thu 11:39:01 PM 39.8189 -83.4617 234° Southwest 423 487 24,300 -2,634 Descending Indianapolis Center
Thu 11:40:02 PM 39.7564 -83.5742 234° Southwest 410 472 21,600 -2,705 Descending Indianapolis Center
Thu 11:41:03 PM 39.6922 -83.6906 234° Southwest 397 457 18,800 -2,557 Descending Indianapolis Center
Thu 11:42:04 PM 39.6308 -83.8008 234° Southwest 378 435 16,400 -2,293 Descending Indianapolis Center
Thu 11:43:06 PM 39.5703 -83.9092 234° Southwest 369 425 14,100 -2,195 Descending Indianapolis Center
Thu 11:44:07 PM 39.5139 -84.0106 234° Southwest 349 402 11,900 -1,525 Descending Indianapolis Center
Thu 11:45:08 PM 39.4500 -84.1231 234° Southwest 333 383 11,000 -492 Descending Indianapolis Center
Thu 11:46:09 PM 39.4186 -84.2389 251° West 335 386 10,900 -492 Descending Indianapolis Center
Thu 11:47:10 PM 39.3858 -84.3464 249° West 324 373 10,000 -984 Descending Indianapolis Center
Thu 11:48:11 PM 39.3600 -84.4325 249° West 264 304 8,900 -1,415 Descending Indianapolis Center
Thu 11:49:13 PM 39.3361 -84.5175 250° West 249 287 7,100 -976 Descending Indianapolis Center
Thu 11:50:14 PM 39.3131 -84.6022 251° West 248 285 6,900 -74 Descending Indianapolis Center
Thu 11:50:34 PM 39.3000 -84.6333 242° Southwest 243 280 7,000 -225 Climbing Cincinnati TRACON
Thu 11:51:34 PM 39.2833 -84.7167 256° West 243 280 6,600 -850 Descending Cincinnati TRACON
Thu 11:52:34 PM 39.2667 -84.8000 256° West 238 274 5,300 -800 Descending Cincinnati TRACON
Thu 11:53:34 PM 39.2167 -84.8500 218° Southwest 231 266 5,000 -231 Descending Cincinnati TRACON
Thu 11:54:18 PM 39.1769 -84.8803 211° Southwest 234 269 4,900 -686 Descending Indianapolis Center
Thu 11:55:19 PM 39.1150 -84.9036 196° South 237 273 3,800 -934 Descending Indianapolis Center
Thu 11:56:20 PM 39.0442 -84.9039 180° South 235 270 3,000 -537 Descending Indianapolis Center
Thu 11:57:22 PM 39.0500 -84.8167 85° East 199 229 2,700 -590 Descending Cincinnati TRACON
Thu 11:58:22 PM 39.0500 -84.7500 90° East 191 220 1,800 -800 Descending Cincinnati TRACON
Thu 11:59:22 PM 39.0500 -84.7000 90° East 120 138 1,100 -700 Descending Cincinnati TRACON

Login

Don't have an account? Register now (free) for customized features, flight alerts, and more!